Forside
METAR-TAF:

METAR-TAF

Lufthavne :

Independence Municipal Airport

Independence, Iowa, USA

Breddekreds: 42-27N, længdekreds: 091-56W, højde: 298 m

Aktuelle vejr

Denne rapport blev lavet for 19 minutter siden, kl. 22:15 UTC
Vind 5 kt fra vestsydvest
Temperatur 17°C
Fugtighed 29%
Tryk 1019 hPa
Sigt: 16.1 km
Brudte skyer i en højde af 9000 ft
Brudte skyer i en højde af 12000 ft

METAR: KIIB 052215Z AUTO 25005KT 10SM BKN090 BKN120 17/M01 A3009 RMK AO2 T01741013

Tid: 17:34 (22:34 UTC)


TAF: fraværende

Vejrobservationer og prognoser fra mere end 4000 lufthavne (METAR og TAF).

De gule og røde prikker repræsenterer de meteorologiske stationer.

Flyt musen over at se navnet på stationen.

Så klik over at se vejr observationer og prognoser.

At skifte det kort: Klik på de grønne knapper med et sort kors for at zoome ind; på den grønne knap med en bindestreg for at zoome ud; eller på de grønne pile for tilstødende kort.


METAR-TAF: